sensor_id;sensor_type;location;lat;lon;timestamp;temperature;humidity
12119;DHT22;6123;48.864;9.200;2022-10-10T00:00:31;11.20;99.90
12119;DHT22;6123;48.864;9.200;2022-10-10T00:02:57;11.30;99.90
12119;DHT22;6123;48.864;9.200;2022-10-10T00:05:23;11.30;99.90
12119;DHT22;6123;48.864;9.200;2022-10-10T00:07:51;11.40;99.90
12119;DHT22;6123;48.864;9.200;2022-10-10T00:10:19;11.40;99.90
12119;DHT22;6123;48.864;9.200;2022-10-10T00:12:45;11.30;99.90
12119;DHT22;6123;48.864;9.200;2022-10-10T00:15:12;11.30;99.90
12119;DHT22;6123;48.864;9.200;2022-10-10T00:17:39;11.30;99.90
12119;DHT22;6123;48.864;9.200;2022-10-10T00:20:07;11.40;99.90
12119;DHT22;6123;48.864;9.200;2022-10-10T00:22:32;11.40;99.90
12119;DHT22;6123;48.864;9.200;2022-10-10T00:25:00;11.40;99.90
12119;DHT22;6123;48.864;9.200;2022-10-10T00:27:28;11.40;99.90
12119;DHT22;6123;48.864;9.200;2022-10-10T00:29:54;11.50;99.90
12119;DHT22;6123;48.864;9.200;2022-10-10T00:32:20;11.40;99.90
12119;DHT22;6123;48.864;9.200;2022-10-10T00:34:45;11.40;99.90
12119;DHT22;6123;48.864;9.200;2022-10-10T00:37:11;11.40;99.90
12119;DHT22;6123;48.864;9.200;2022-10-10T00:39:36;11.50;99.90
12119;DHT22;6123;48.864;9.200;2022-10-10T00:42:02;11.60;99.90
12119;DHT22;6123;48.864;9.200;2022-10-10T00:44:28;11.60;99.90
12119;DHT22;6123;48.864;9.200;2022-10-10T00:46:53;11.70;99.90
12119;DHT22;6123;48.864;9.200;2022-10-10T00:49:22;11.60;99.90
12119;DHT22;6123;48.864;9.200;2022-10-10T00:51:51;11.70;99.90
12119;DHT22;6123;48.864;9.200;2022-10-10T00:54:19;11.70;99.90
12119;DHT22;6123;48.864;9.200;2022-10-10T00:56:57;11.70;99.90
12119;DHT22;6123;48.864;9.200;2022-10-10T00:59:25;11.80;99.90
12119;DHT22;6123;48.864;9.200;2022-10-10T01:01:55;11.80;99.90
12119;DHT22;6123;48.864;9.200;2022-10-10T01:04:38;11.70;99.90
12119;DHT22;6123;48.864;9.200;2022-10-10T01:07:13;11.80;99.90
12119;DHT22;6123;48.864;9.200;2022-10-10T01:09:42;11.80;99.90
12119;DHT22;6123;48.864;9.200;2022-10-10T01:15:05;11.70;99.90
12119;DHT22;6123;48.864;9.200;2022-10-10T01:17:51;11.70;99.90
12119;DHT22;6123;48.864;9.200;2022-10-10T01:23:23;11.70;99.90
12119;DHT22;6123;48.864;9.200;2022-10-10T01:28:47;11.70;99.90
12119;DHT22;6123;48.864;9.200;2022-10-10T01:31:21;11.60;99.90
12119;DHT22;6123;48.864;9.200;2022-10-10T01:42:11;11.50;99.90
12119;DHT22;6123;48.864;9.200;2022-10-10T01:44:43;11.50;99.90
12119;DHT22;6123;48.864;9.200;2022-10-10T01:47:10;11.50;99.90
12119;DHT22;6123;48.864;9.200;2022-10-10T01:49:36;11.50;99.90
12119;DHT22;6123;48.864;9.200;2022-10-10T02:00:12;11.30;99.90
12119;DHT22;6123;48.864;9.200;2022-10-10T02:05:32;11.40;99.90
12119;DHT22;6123;48.864;9.200;2022-10-10T02:08:36;11.40;99.90
12119;DHT22;6123;48.864;9.200;2022-10-10T02:11:07;11.40;99.90
12119;DHT22;6123;48.864;9.200;2022-10-10T02:13:40;11.40;99.90
12119;DHT22;6123;48.864;9.200;2022-10-10T02:16:13;11.40;99.90
12119;DHT22;6123;48.864;9.200;2022-10-10T02:18:40;11.40;99.90
12119;DHT22;6123;48.864;9.200;2022-10-10T02:21:10;11.50;99.90
12119;DHT22;6123;48.864;9.200;2022-10-10T02:23:38;11.50;99.90
12119;DHT22;6123;48.864;9.200;2022-10-10T02:26:09;11.40;99.90
12119;DHT22;6123;48.864;9.200;2022-10-10T02:28:50;11.50;99.90
12119;DHT22;6123;48.864;9.200;2022-10-10T02:34:11;11.40;99.90
12119;DHT22;6123;48.864;9.200;2022-10-10T02:36:39;11.60;99.90
12119;DHT22;6123;48.864;9.200;2022-10-10T02:39:10;11.40;99.90
12119;DHT22;6123;48.864;9.200;2022-10-10T02:41:38;11.30;99.90
12119;DHT22;6123;48.864;9.200;2022-10-10T02:44:05;11.30;99.90
12119;DHT22;6123;48.864;9.200;2022-10-10T02:46:30;11.30;99.90
12119;DHT22;6123;48.864;9.200;2022-10-10T02:48:57;11.30;99.90
12119;DHT22;6123;48.864;9.200;2022-10-10T02:51:25;11.30;99.90
12119;DHT22;6123;48.864;9.200;2022-10-10T02:53:53;11.20;99.90
12119;DHT22;6123;48.864;9.200;2022-10-10T02:56:18;11.20;99.90
12119;DHT22;6123;48.864;9.200;2022-10-10T02:58:46;11.20;99.90
12119;DHT22;6123;48.864;9.200;2022-10-10T03:01:12;11.20;99.90
12119;DHT22;6123;48.864;9.200;2022-10-10T03:03:38;11.10;99.90
12119;DHT22;6123;48.864;9.200;2022-10-10T03:06:03;11.00;99.90
12119;DHT22;6123;48.864;9.200;2022-10-10T03:08:29;11.10;99.90
12119;DHT22;6123;48.864;9.200;2022-10-10T03:10:59;11.00;99.90
12119;DHT22;6123;48.864;9.200;2022-10-10T03:13:28;11.10;99.90
12119;DHT22;6123;48.864;9.200;2022-10-10T03:15:53;10.90;99.90
12119;DHT22;6123;48.864;9.200;2022-10-10T03:18:20;11.00;99.90
12119;DHT22;6123;48.864;9.200;2022-10-10T03:20:50;10.90;99.90
12119;DHT22;6123;48.864;9.200;2022-10-10T03:23:16;10.90;99.90
12119;DHT22;6123;48.864;9.200;2022-10-10T03:25:44;10.90;99.90
12119;DHT22;6123;48.864;9.200;2022-10-10T03:28:10;10.90;99.90
12119;DHT22;6123;48.864;9.200;2022-10-10T03:30:38;11.00;99.90
12119;DHT22;6123;48.864;9.200;2022-10-10T03:33:05;10.80;99.90
12119;DHT22;6123;48.864;9.200;2022-10-10T03:35:31;10.90;99.90
12119;DHT22;6123;48.864;9.200;2022-10-10T03:37:57;10.80;99.90
12119;DHT22;6123;48.864;9.200;2022-10-10T03:40:23;10.80;99.90
12119;DHT22;6123;48.864;9.200;2022-10-10T03:42:49;10.70;99.90
12119;DHT22;6123;48.864;9.200;2022-10-10T03:45:15;10.70;99.90
12119;DHT22;6123;48.864;9.200;2022-10-10T03:47:41;10.70;99.90
12119;DHT22;6123;48.864;9.200;2022-10-10T03:50:07;10.60;99.90
12119;DHT22;6123;48.864;9.200;2022-10-10T03:52:33;10.60;99.90
12119;DHT22;6123;48.864;9.200;2022-10-10T03:54:58;10.70;99.90
12119;DHT22;6123;48.864;9.200;2022-10-10T03:57:24;10.80;99.90
12119;DHT22;6123;48.864;9.200;2022-10-10T03:59:50;10.70;99.90
12119;DHT22;6123;48.864;9.200;2022-10-10T04:02:15;10.70;99.90
12119;DHT22;6123;48.864;9.200;2022-10-10T04:04:46;10.60;99.90
12119;DHT22;6123;48.864;9.200;2022-10-10T04:07:11;10.60;99.90
12119;DHT22;6123;48.864;9.200;2022-10-10T04:09:41;10.60;99.90
12119;DHT22;6123;48.864;9.200;2022-10-10T04:12:07;10.50;99.90
12119;DHT22;6123;48.864;9.200;2022-10-10T04:14:33;10.50;99.90
12119;DHT22;6123;48.864;9.200;2022-10-10T04:16:58;10.60;99.90
12119;DHT22;6123;48.864;9.200;2022-10-10T04:19:24;10.60;99.90
12119;DHT22;6123;48.864;9.200;2022-10-10T04:21:52;10.60;99.90
12119;DHT22;6123;48.864;9.200;2022-10-10T04:24:18;10.60;99.90
12119;DHT22;6123;48.864;9.200;2022-10-10T04:26:43;10.60;99.90
12119;DHT22;6123;48.864;9.200;2022-10-10T04:29:09;10.60;99.90
12119;DHT22;6123;48.864;9.200;2022-10-10T04:31:36;10.50;99.90
12119;DHT22;6123;48.864;9.200;2022-10-10T04:34:02;10.40;99.90
12119;DHT22;6123;48.864;9.200;2022-10-10T04:36:28;10.40;99.90
12119;DHT22;6123;48.864;9.200;2022-10-10T04:38:53;10.40;99.90
12119;DHT22;6123;48.864;9.200;2022-10-10T04:41:19;10.40;99.90
12119;DHT22;6123;48.864;9.200;2022-10-10T04:43:44;10.30;99.90
12119;DHT22;6123;48.864;9.200;2022-10-10T04:46:10;10.30;99.90
12119;DHT22;6123;48.864;9.200;2022-10-10T04:48:36;10.40;99.90
12119;DHT22;6123;48.864;9.200;2022-10-10T04:51:02;10.40;99.90
12119;DHT22;6123;48.864;9.200;2022-10-10T04:53:27;10.30;99.90
12119;DHT22;6123;48.864;9.200;2022-10-10T04:55:53;10.30;99.90
12119;DHT22;6123;48.864;9.200;2022-10-10T04:58:19;10.30;99.90
12119;DHT22;6123;48.864;9.200;2022-10-10T05:00:44;10.30;99.90
12119;DHT22;6123;48.864;9.200;2022-10-10T05:03:14;10.30;99.90
12119;DHT22;6123;48.864;9.200;2022-10-10T05:05:40;10.20;99.90
12119;DHT22;6123;48.864;9.200;2022-10-10T05:08:06;10.30;99.90
12119;DHT22;6123;48.864;9.200;2022-10-10T05:10:38;10.20;99.90
12119;DHT22;6123;48.864;9.200;2022-10-10T05:13:05;10.30;99.90
12119;DHT22;6123;48.864;9.200;2022-10-10T05:15:33;10.20;99.90
12119;DHT22;6123;48.864;9.200;2022-10-10T05:18:00;10.10;99.90
12119;DHT22;6123;48.864;9.200;2022-10-10T05:20:26;10.10;99.90
12119;DHT22;6123;48.864;9.200;2022-10-10T05:22:54;10.10;99.90
12119;DHT22;6123;48.864;9.200;2022-10-10T05:25:20;10.10;99.90
12119;DHT22;6123;48.864;9.200;2022-10-10T05:27:46;10.10;99.90
12119;DHT22;6123;48.864;9.200;2022-10-10T05:30:13;10.10;99.90
12119;DHT22;6123;48.864;9.200;2022-10-10T05:32:39;10.20;99.90
12119;DHT22;6123;48.864;9.200;2022-10-10T05:35:05;10.10;99.90
12119;DHT22;6123;48.864;9.200;2022-10-10T05:37:34;10.10;99.90
12119;DHT22;6123;48.864;9.200;2022-10-10T05:40:03;10.20;99.90
12119;DHT22;6123;48.864;9.200;2022-10-10T05:42:28;10.50;99.90
12119;DHT22;6123;48.864;9.200;2022-10-10T05:44:54;10.30;99.90
12119;DHT22;6123;48.864;9.200;2022-10-10T05:47:20;10.30;99.90
12119;DHT22;6123;48.864;9.200;2022-10-10T05:49:45;10.30;99.90
12119;DHT22;6123;48.864;9.200;2022-10-10T05:52:11;10.30;99.90
12119;DHT22;6123;48.864;9.200;2022-10-10T05:54:36;10.30;99.90
12119;DHT22;6123;48.864;9.200;2022-10-10T05:57:02;10.30;99.90
12119;DHT22;6123;48.864;9.200;2022-10-10T05:59:28;10.30;99.90
12119;DHT22;6123;48.864;9.200;2022-10-10T06:01:55;10.30;99.90
12119;DHT22;6123;48.864;9.200;2022-10-10T06:04:24;10.30;99.90
12119;DHT22;6123;48.864;9.200;2022-10-10T06:06:52;10.30;99.90
12119;DHT22;6123;48.864;9.200;2022-10-10T06:09:18;10.40;99.90
12119;DHT22;6123;48.864;9.200;2022-10-10T06:11:43;10.50;99.90
12119;DHT22;6123;48.864;9.200;2022-10-10T06:14:09;10.50;99.90
12119;DHT22;6123;48.864;9.200;2022-10-10T06:16:35;10.50;99.90
12119;DHT22;6123;48.864;9.200;2022-10-10T06:19:02;10.50;99.90
12119;DHT22;6123;48.864;9.200;2022-10-10T06:21:28;10.60;99.90
12119;DHT22;6123;48.864;9.200;2022-10-10T06:23:53;10.50;99.90
12119;DHT22;6123;48.864;9.200;2022-10-10T06:26:19;10.50;99.90
12119;DHT22;6123;48.864;9.200;2022-10-10T06:28:45;10.60;99.90
12119;DHT22;6123;48.864;9.200;2022-10-10T06:31:12;10.70;99.90
12119;DHT22;6123;48.864;9.200;2022-10-10T06:33:41;10.80;99.90
12119;DHT22;6123;48.864;9.200;2022-10-10T06:36:07;11.10;99.90
12119;DHT22;6123;48.864;9.200;2022-10-10T06:38:41;11.30;99.90
12119;DHT22;6123;48.864;9.200;2022-10-10T06:41:09;11.20;99.90
12119;DHT22;6123;48.864;9.200;2022-10-10T06:43:35;11.10;99.90
12119;DHT22;6123;48.864;9.200;2022-10-10T06:46:04;11.00;99.90
12119;DHT22;6123;48.864;9.200;2022-10-10T06:48:29;11.20;99.90
12119;DHT22;6123;48.864;9.200;2022-10-10T06:51:02;11.10;99.90
12119;DHT22;6123;48.864;9.200;2022-10-10T06:53:28;11.10;99.90
12119;DHT22;6123;48.864;9.200;2022-10-10T06:55:54;11.10;99.90
12119;DHT22;6123;48.864;9.200;2022-10-10T06:58:21;11.20;99.90
12119;DHT22;6123;48.864;9.200;2022-10-10T07:00:55;11.20;99.90
12119;DHT22;6123;48.864;9.200;2022-10-10T07:03:22;11.20;99.90
12119;DHT22;6123;48.864;9.200;2022-10-10T07:05:52;11.30;99.90
12119;DHT22;6123;48.864;9.200;2022-10-10T07:08:19;11.40;99.90
12119;DHT22;6123;48.864;9.200;2022-10-10T07:10:45;11.50;99.90
12119;DHT22;6123;48.864;9.200;2022-10-10T07:13:12;11.70;99.90
12119;DHT22;6123;48.864;9.200;2022-10-10T07:15:40;11.70;99.90
12119;DHT22;6123;48.864;9.200;2022-10-10T07:18:06;11.90;99.90
12119;DHT22;6123;48.864;9.200;2022-10-10T07:20:32;11.90;99.90
12119;DHT22;6123;48.864;9.200;2022-10-10T07:22:58;11.90;99.90
12119;DHT22;6123;48.864;9.200;2022-10-10T07:25:24;11.80;99.90
12119;DHT22;6123;48.864;9.200;2022-10-10T07:27:49;11.90;99.90
12119;DHT22;6123;48.864;9.200;2022-10-10T07:30:15;11.80;99.90
12119;DHT22;6123;48.864;9.200;2022-10-10T07:32:43;11.90;99.90
12119;DHT22;6123;48.864;9.200;2022-10-10T07:35:11;11.90;99.90
12119;DHT22;6123;48.864;9.200;2022-10-10T07:37:38;12.20;99.90
12119;DHT22;6123;48.864;9.200;2022-10-10T07:40:04;12.70;99.90
12119;DHT22;6123;48.864;9.200;2022-10-10T07:42:30;12.80;99.90
12119;DHT22;6123;48.864;9.200;2022-10-10T07:44:56;13.10;99.90
12119;DHT22;6123;48.864;9.200;2022-10-10T07:47:22;13.30;99.90
12119;DHT22;6123;48.864;9.200;2022-10-10T07:49:47;13.20;99.90
12119;DHT22;6123;48.864;9.200;2022-10-10T07:52:13;13.10;99.90
12119;DHT22;6123;48.864;9.200;2022-10-10T07:54:38;13.00;99.90
12119;DHT22;6123;48.864;9.200;2022-10-10T07:57:04;13.10;99.90
12119;DHT22;6123;48.864;9.200;2022-10-10T07:59:32;13.10;99.90
12119;DHT22;6123;48.864;9.200;2022-10-10T08:01:57;13.20;99.90
12119;DHT22;6123;48.864;9.200;2022-10-10T08:04:23;13.30;99.90
12119;DHT22;6123;48.864;9.200;2022-10-10T08:06:51;13.40;99.90
12119;DHT22;6123;48.864;9.200;2022-10-10T08:09:17;13.40;99.90
12119;DHT22;6123;48.864;9.200;2022-10-10T08:11:44;13.50;99.90
12119;DHT22;6123;48.864;9.200;2022-10-10T08:14:12;13.60;99.90
12119;DHT22;6123;48.864;9.200;2022-10-10T08:16:38;13.70;99.90
12119;DHT22;6123;48.864;9.200;2022-10-10T08:19:04;13.80;99.90
12119;DHT22;6123;48.864;9.200;2022-10-10T08:21:29;13.90;99.90
12119;DHT22;6123;48.864;9.200;2022-10-10T08:23:55;14.00;99.90
12119;DHT22;6123;48.864;9.200;2022-10-10T08:26:23;14.00;99.90
12119;DHT22;6123;48.864;9.200;2022-10-10T08:28:51;14.10;99.90
12119;DHT22;6123;48.864;9.200;2022-10-10T08:31:18;14.20;99.90
12119;DHT22;6123;48.864;9.200;2022-10-10T08:33:45;14.20;99.90
12119;DHT22;6123;48.864;9.200;2022-10-10T08:36:13;14.20;99.90
12119;DHT22;6123;48.864;9.200;2022-10-10T08:38:40;14.30;99.90
12119;DHT22;6123;48.864;9.200;2022-10-10T08:43:53;14.50;99.90
12119;DHT22;6123;48.864;9.200;2022-10-10T08:46:23;14.60;99.90
12119;DHT22;6123;48.864;9.200;2022-10-10T08:48:52;14.70;99.90
12119;DHT22;6123;48.864;9.200;2022-10-10T08:51:27;14.70;99.90
12119;DHT22;6123;48.864;9.200;2022-10-10T08:53:58;14.90;99.90
12119;DHT22;6123;48.864;9.200;2022-10-10T08:56:32;15.20;99.90
12119;DHT22;6123;48.864;9.200;2022-10-10T08:59:23;15.30;99.90
12119;DHT22;6123;48.864;9.200;2022-10-10T09:02:37;15.20;99.90
12119;DHT22;6123;48.864;9.200;2022-10-10T09:04:42;15.40;99.90
12119;DHT22;6123;48.864;9.200;2022-10-10T09:07:29;15.40;99.90
12119;DHT22;6123;48.864;9.200;2022-10-10T09:10:27;15.40;99.90
12119;DHT22;6123;48.864;9.200;2022-10-10T09:13:11;15.40;99.90
12119;DHT22;6123;48.864;9.200;2022-10-10T09:21:09;16.10;99.90
12119;DHT22;6123;48.864;9.200;2022-10-10T09:23:50;16.30;99.90
12119;DHT22;6123;48.864;9.200;2022-10-10T09:26:24;16.50;99.90
12119;DHT22;6123;48.864;9.200;2022-10-10T09:31:32;16.50;99.90
12119;DHT22;6123;48.864;9.200;2022-10-10T09:34:15;16.50;99.90
12119;DHT22;6123;48.864;9.200;2022-10-10T09:36:41;16.50;99.90
12119;DHT22;6123;48.864;9.200;2022-10-10T09:42:09;16.30;99.90
12119;DHT22;6123;48.864;9.200;2022-10-10T09:44:37;16.70;99.90
12119;DHT22;6123;48.864;9.200;2022-10-10T09:47:04;17.30;99.90
12119;DHT22;6123;48.864;9.200;2022-10-10T09:49:29;17.60;99.90
12119;DHT22;6123;48.864;9.200;2022-10-10T09:51:55;17.90;99.90
12119;DHT22;6123;48.864;9.200;2022-10-10T09:54:21;17.90;99.90
12119;DHT22;6123;48.864;9.200;2022-10-10T09:56:49;17.60;99.90
12119;DHT22;6123;48.864;9.200;2022-10-10T10:02:19;18.20;99.90
12119;DHT22;6123;48.864;9.200;2022-10-10T10:04:46;18.50;99.90
12119;DHT22;6123;48.864;9.200;2022-10-10T10:07:28;18.40;99.90
12119;DHT22;6123;48.864;9.200;2022-10-10T10:12:41;18.30;99.90
12119;DHT22;6123;48.864;9.200;2022-10-10T10:15:28;18.20;99.90
12119;DHT22;6123;48.864;9.200;2022-10-10T10:20:49;18.20;99.90
12119;DHT22;6123;48.864;9.200;2022-10-10T10:26:00;18.20;99.90
12119;DHT22;6123;48.864;9.200;2022-10-10T10:28:26;18.10;99.90
12119;DHT22;6123;48.864;9.200;2022-10-10T10:30:54;18.10;99.90
12119;DHT22;6123;48.864;9.200;2022-10-10T10:45:33;18.50;99.90
12119;DHT22;6123;48.864;9.200;2022-10-10T10:48:28;18.60;99.90
12119;DHT22;6123;48.864;9.200;2022-10-10T10:56:40;18.60;99.90
12119;DHT22;6123;48.864;9.200;2022-10-10T11:01:51;18.70;99.90
12119;DHT22;6123;48.864;9.200;2022-10-10T11:04:54;19.10;99.90
12119;DHT22;6123;48.864;9.200;2022-10-10T11:07:43;19.80;99.90
12119;DHT22;6123;48.864;9.200;2022-10-10T11:10:25;20.30;99.90
12119;DHT22;6123;48.864;9.200;2022-10-10T11:15:45;21.30;99.90
12119;DHT22;6123;48.864;9.200;2022-10-10T11:18:21;21.30;99.90
12119;DHT22;6123;48.864;9.200;2022-10-10T11:23:44;22.20;99.90
12119;DHT22;6123;48.864;9.200;2022-10-10T11:26:22;22.00;99.90
12119;DHT22;6123;48.864;9.200;2022-10-10T11:29:19;22.10;99.90
12119;DHT22;6123;48.864;9.200;2022-10-10T11:35:06;22.60;99.90
12119;DHT22;6123;48.864;9.200;2022-10-10T11:37:18;22.90;99.90
12119;DHT22;6123;48.864;9.200;2022-10-10T11:39:55;22.90;99.90
12119;DHT22;6123;48.864;9.200;2022-10-10T11:42:30;23.00;99.90
12119;DHT22;6123;48.864;9.200;2022-10-10T11:45:01;23.00;99.90
12119;DHT22;6123;48.864;9.200;2022-10-10T11:47:46;22.50;99.90
12119;DHT22;6123;48.864;9.200;2022-10-10T11:50:29;22.40;99.90
12119;DHT22;6123;48.864;9.200;2022-10-10T11:53:01;22.60;99.90
12119;DHT22;6123;48.864;9.200;2022-10-10T11:55:40;22.60;99.90
12119;DHT22;6123;48.864;9.200;2022-10-10T12:00:47;22.70;99.90
12119;DHT22;6123;48.864;9.200;2022-10-10T12:03:13;22.70;99.90
12119;DHT22;6123;48.864;9.200;2022-10-10T12:05:45;23.00;99.90
12119;DHT22;6123;48.864;9.200;2022-10-10T12:08:20;23.00;99.90
12119;DHT22;6123;48.864;9.200;2022-10-10T12:11:27;23.10;99.90
12119;DHT22;6123;48.864;9.200;2022-10-10T12:13:58;23.00;99.90
12119;DHT22;6123;48.864;9.200;2022-10-10T12:16:28;22.90;99.90
12119;DHT22;6123;48.864;9.200;2022-10-10T12:21:23;23.10;99.90
12119;DHT22;6123;48.864;9.200;2022-10-10T12:24:09;22.90;99.90
12119;DHT22;6123;48.864;9.200;2022-10-10T12:29:46;23.10;99.90
12119;DHT22;6123;48.864;9.200;2022-10-10T12:37:23;22.60;99.90
12119;DHT22;6123;48.864;9.200;2022-10-10T12:42:32;22.90;99.90
12119;DHT22;6123;48.864;9.200;2022-10-10T12:44:59;22.90;99.90
12119;DHT22;6123;48.864;9.200;2022-10-10T12:47:41;22.70;99.90
12119;DHT22;6123;48.864;9.200;2022-10-10T12:52:54;22.50;99.90
12119;DHT22;6123;48.864;9.200;2022-10-10T12:57:50;22.80;99.90
12119;DHT22;6123;48.864;9.200;2022-10-10T13:00:20;23.40;99.90
12119;DHT22;6123;48.864;9.200;2022-10-10T13:02:54;23.50;99.90
12119;DHT22;6123;48.864;9.200;2022-10-10T13:05:29;23.70;99.90
12119;DHT22;6123;48.864;9.200;2022-10-10T13:08:03;23.30;99.90
12119;DHT22;6123;48.864;9.200;2022-10-10T13:10:30;23.10;99.90
12119;DHT22;6123;48.864;9.200;2022-10-10T13:13:18;23.40;99.90
12119;DHT22;6123;48.864;9.200;2022-10-10T13:15:52;23.60;99.90
12119;DHT22;6123;48.864;9.200;2022-10-10T13:21:03;24.10;99.90
12119;DHT22;6123;48.864;9.200;2022-10-10T13:23:30;24.50;99.90
12119;DHT22;6123;48.864;9.200;2022-10-10T13:25:56;24.80;99.90
12119;DHT22;6123;48.864;9.200;2022-10-10T13:28:24;24.80;99.90
12119;DHT22;6123;48.864;9.200;2022-10-10T13:30:50;25.00;99.90
12119;DHT22;6123;48.864;9.200;2022-10-10T13:33:20;25.20;99.90
12119;DHT22;6123;48.864;9.200;2022-10-10T13:35:48;25.20;99.90
12119;DHT22;6123;48.864;9.200;2022-10-10T13:38:16;25.00;99.90
12119;DHT22;6123;48.864;9.200;2022-10-10T13:40:42;25.30;99.90
12119;DHT22;6123;48.864;9.200;2022-10-10T13:43:14;25.70;99.90
12119;DHT22;6123;48.864;9.200;2022-10-10T13:46:00;25.40;99.90
12119;DHT22;6123;48.864;9.200;2022-10-10T13:48:38;25.60;99.90
12119;DHT22;6123;48.864;9.200;2022-10-10T13:51:07;25.60;99.90
12119;DHT22;6123;48.864;9.200;2022-10-10T13:53:48;25.30;99.90
12119;DHT22;6123;48.864;9.200;2022-10-10T13:56:27;25.20;99.90
12119;DHT22;6123;48.864;9.200;2022-10-10T14:01:41;25.20;99.90
12119;DHT22;6123;48.864;9.200;2022-10-10T14:04:28;23.40;99.90
12119;DHT22;6123;48.864;9.200;2022-10-10T14:07:17;23.80;99.90
12119;DHT22;6123;48.864;9.200;2022-10-10T14:09:50;24.40;99.90
12119;DHT22;6123;48.864;9.200;2022-10-10T14:14:52;25.70;99.90
12119;DHT22;6123;48.864;9.200;2022-10-10T14:17:20;24.50;99.90
12119;DHT22;6123;48.864;9.200;2022-10-10T14:19:47;24.10;99.90
12119;DHT22;6123;48.864;9.200;2022-10-10T14:22:16;24.30;99.90
12119;DHT22;6123;48.864;9.200;2022-10-10T14:24:42;24.80;99.90
12119;DHT22;6123;48.864;9.200;2022-10-10T14:29:37;23.40;99.90
12119;DHT22;6123;48.864;9.200;2022-10-10T14:32:03;23.10;99.90
12119;DHT22;6123;48.864;9.200;2022-10-10T14:34:33;22.50;99.90
12119;DHT22;6123;48.864;9.200;2022-10-10T14:36:59;22.50;99.90
12119;DHT22;6123;48.864;9.200;2022-10-10T14:39:25;22.90;99.90
12119;DHT22;6123;48.864;9.200;2022-10-10T14:41:50;23.00;99.90
12119;DHT22;6123;48.864;9.200;2022-10-10T14:44:19;23.10;99.90
12119;DHT22;6123;48.864;9.200;2022-10-10T14:46:46;23.00;99.90
12119;DHT22;6123;48.864;9.200;2022-10-10T14:49:19;23.60;99.90
12119;DHT22;6123;48.864;9.200;2022-10-10T14:51:48;23.50;99.90
12119;DHT22;6123;48.864;9.200;2022-10-10T14:54:13;23.70;99.90
12119;DHT22;6123;48.864;9.200;2022-10-10T14:56:43;23.90;99.90
12119;DHT22;6123;48.864;9.200;2022-10-10T14:59:20;23.70;99.90
12119;DHT22;6123;48.864;9.200;2022-10-10T15:01:46;23.40;99.90
12119;DHT22;6123;48.864;9.200;2022-10-10T15:04:13;22.90;99.90
12119;DHT22;6123;48.864;9.200;2022-10-10T15:06:39;22.50;99.90
12119;DHT22;6123;48.864;9.200;2022-10-10T15:09:05;22.90;99.90
12119;DHT22;6123;48.864;9.200;2022-10-10T15:11:33;23.50;99.90
12119;DHT22;6123;48.864;9.200;2022-10-10T15:13:59;23.50;99.90
12119;DHT22;6123;48.864;9.200;2022-10-10T15:16:24;23.40;99.90
12119;DHT22;6123;48.864;9.200;2022-10-10T15:18:50;23.80;99.90
12119;DHT22;6123;48.864;9.200;2022-10-10T15:21:15;23.20;99.90
12119;DHT22;6123;48.864;9.200;2022-10-10T15:23:43;24.60;99.90
12119;DHT22;6123;48.864;9.200;2022-10-10T15:26:09;24.00;99.90
12119;DHT22;6123;48.864;9.200;2022-10-10T15:28:35;24.20;99.90
12119;DHT22;6123;48.864;9.200;2022-10-10T15:31:03;24.90;99.90
12119;DHT22;6123;48.864;9.200;2022-10-10T15:33:32;24.40;99.90
12119;DHT22;6123;48.864;9.200;2022-10-10T15:35:59;25.50;99.90
12119;DHT22;6123;48.864;9.200;2022-10-10T15:38:27;25.00;99.90
12119;DHT22;6123;48.864;9.200;2022-10-10T15:41:01;25.80;99.90
12119;DHT22;6123;48.864;9.200;2022-10-10T15:43:28;25.80;99.90
12119;DHT22;6123;48.864;9.200;2022-10-10T15:45:55;25.10;99.90
12119;DHT22;6123;48.864;9.200;2022-10-10T15:48:23;24.50;99.90
12119;DHT22;6123;48.864;9.200;2022-10-10T15:50:49;24.60;99.90
12119;DHT22;6123;48.864;9.200;2022-10-10T15:53:18;24.00;99.90
12119;DHT22;6123;48.864;9.200;2022-10-10T15:55:45;24.10;99.90
12119;DHT22;6123;48.864;9.200;2022-10-10T15:58:14;23.70;99.90
12119;DHT22;6123;48.864;9.200;2022-10-10T16:00:41;23.70;99.90
12119;DHT22;6123;48.864;9.200;2022-10-10T16:03:14;23.60;99.90
12119;DHT22;6123;48.864;9.200;2022-10-10T16:05:41;23.50;99.90
12119;DHT22;6123;48.864;9.200;2022-10-10T16:08:07;23.30;99.90
12119;DHT22;6123;48.864;9.200;2022-10-10T16:10:40;23.10;99.90
12119;DHT22;6123;48.864;9.200;2022-10-10T16:13:06;22.90;99.90
12119;DHT22;6123;48.864;9.200;2022-10-10T16:15:35;22.50;99.90
12119;DHT22;6123;48.864;9.200;2022-10-10T16:18:01;22.30;99.90
12119;DHT22;6123;48.864;9.200;2022-10-10T16:20:27;22.30;99.90
12119;DHT22;6123;48.864;9.200;2022-10-10T16:22:53;21.90;99.90
12119;DHT22;6123;48.864;9.200;2022-10-10T16:25:19;21.60;99.90
12119;DHT22;6123;48.864;9.200;2022-10-10T16:27:45;21.50;99.90
12119;DHT22;6123;48.864;9.200;2022-10-10T16:30:15;21.50;99.90
12119;DHT22;6123;48.864;9.200;2022-10-10T16:32:41;21.40;99.90
12119;DHT22;6123;48.864;9.200;2022-10-10T16:35:07;21.40;99.90
12119;DHT22;6123;48.864;9.200;2022-10-10T16:37:33;21.30;99.90
12119;DHT22;6123;48.864;9.200;2022-10-10T16:39:58;21.20;99.90
12119;DHT22;6123;48.864;9.200;2022-10-10T16:42:24;21.20;99.90
12119;DHT22;6123;48.864;9.200;2022-10-10T16:44:49;21.10;99.90
12119;DHT22;6123;48.864;9.200;2022-10-10T16:47:15;21.10;99.90
12119;DHT22;6123;48.864;9.200;2022-10-10T16:49:41;21.00;99.90
12119;DHT22;6123;48.864;9.200;2022-10-10T16:52:06;20.90;99.90
12119;DHT22;6123;48.864;9.200;2022-10-10T16:54:32;20.60;99.90
12119;DHT22;6123;48.864;9.200;2022-10-10T16:57:00;20.60;99.90
12119;DHT22;6123;48.864;9.200;2022-10-10T16:59:27;20.60;99.90
12119;DHT22;6123;48.864;9.200;2022-10-10T17:01:53;20.60;99.90
12119;DHT22;6123;48.864;9.200;2022-10-10T17:04:19;20.50;99.90
12119;DHT22;6123;48.864;9.200;2022-10-10T17:06:44;20.40;99.90
12119;DHT22;6123;48.864;9.200;2022-10-10T17:09:10;20.20;99.90
12119;DHT22;6123;48.864;9.200;2022-10-10T17:11:36;20.00;99.90
12119;DHT22;6123;48.864;9.200;2022-10-10T17:14:03;19.90;99.90
12119;DHT22;6123;48.864;9.200;2022-10-10T17:16:29;19.90;99.90
12119;DHT22;6123;48.864;9.200;2022-10-10T17:18:58;19.60;99.90
12119;DHT22;6123;48.864;9.200;2022-10-10T17:21:25;19.50;99.90
12119;DHT22;6123;48.864;9.200;2022-10-10T17:23:50;19.50;99.90
12119;DHT22;6123;48.864;9.200;2022-10-10T17:26:19;19.40;99.90
12119;DHT22;6123;48.864;9.200;2022-10-10T17:28:52;19.00;99.90
12119;DHT22;6123;48.864;9.200;2022-10-10T17:31:19;18.60;99.90
12119;DHT22;6123;48.864;9.200;2022-10-10T17:33:45;18.80;99.90
12119;DHT22;6123;48.864;9.200;2022-10-10T17:36:18;18.80;99.90
12119;DHT22;6123;48.864;9.200;2022-10-10T17:38:47;18.80;99.90
12119;DHT22;6123;48.864;9.200;2022-10-10T17:41:14;18.80;99.90
12119;DHT22;6123;48.864;9.200;2022-10-10T17:43:43;18.80;99.90
12119;DHT22;6123;48.864;9.200;2022-10-10T17:46:14;18.80;99.90
12119;DHT22;6123;48.864;9.200;2022-10-10T17:48:40;18.70;99.90
12119;DHT22;6123;48.864;9.200;2022-10-10T17:51:10;18.60;99.90
12119;DHT22;6123;48.864;9.200;2022-10-10T17:53:36;18.60;99.90